sensor_id;sensor_type;location;lat;lon;timestamp;temperature;humidity
29241;DHT22;16268;49.880;8.648;2022-12-20T00:00:15;3.60;99.90
29241;DHT22;16268;49.880;8.648;2022-12-20T00:02:41;3.70;99.90
29241;DHT22;16268;49.880;8.648;2022-12-20T00:05:07;3.60;99.90
29241;DHT22;16268;49.880;8.648;2022-12-20T00:07:33;3.60;99.90
29241;DHT22;16268;49.880;8.648;2022-12-20T00:09:58;3.50;99.90
29241;DHT22;16268;49.880;8.648;2022-12-20T00:12:24;3.50;99.90
29241;DHT22;16268;49.880;8.648;2022-12-20T00:14:49;3.50;99.90
29241;DHT22;16268;49.880;8.648;2022-12-20T00:17:15;3.40;99.90
29241;DHT22;16268;49.880;8.648;2022-12-20T00:19:44;3.40;99.90
29241;DHT22;16268;49.880;8.648;2022-12-20T00:22:10;3.40;99.90
29241;DHT22;16268;49.880;8.648;2022-12-20T00:24:36;3.40;99.90
29241;DHT22;16268;49.880;8.648;2022-12-20T00:27:01;3.40;99.90
29241;DHT22;16268;49.880;8.648;2022-12-20T00:29:27;3.40;99.90
29241;DHT22;16268;49.880;8.648;2022-12-20T00:31:52;3.40;99.90
29241;DHT22;16268;49.880;8.648;2022-12-20T00:34:18;3.40;99.90
29241;DHT22;16268;49.880;8.648;2022-12-20T00:36:43;3.50;99.90
29241;DHT22;16268;49.880;8.648;2022-12-20T00:39:09;3.60;99.90
29241;DHT22;16268;49.880;8.648;2022-12-20T00:41:35;3.60;99.90
29241;DHT22;16268;49.880;8.648;2022-12-20T00:44:02;3.60;99.90
29241;DHT22;16268;49.880;8.648;2022-12-20T00:46:28;3.60;99.90
29241;DHT22;16268;49.880;8.648;2022-12-20T00:48:54;3.50;99.90
29241;DHT22;16268;49.880;8.648;2022-12-20T00:51:27;3.60;99.90
29241;DHT22;16268;49.880;8.648;2022-12-20T00:53:53;3.50;99.90
29241;DHT22;16268;49.880;8.648;2022-12-20T00:56:19;3.60;99.90
29241;DHT22;16268;49.880;8.648;2022-12-20T00:58:45;3.70;99.90
29241;DHT22;16268;49.880;8.648;2022-12-20T01:01:23;3.60;99.90
29241;DHT22;16268;49.880;8.648;2022-12-20T01:03:49;3.60;99.90
29241;DHT22;16268;49.880;8.648;2022-12-20T01:06:15;3.60;99.90
29241;DHT22;16268;49.880;8.648;2022-12-20T01:08:41;3.50;99.90
29241;DHT22;16268;49.880;8.648;2022-12-20T01:11:14;3.60;99.90
29241;DHT22;16268;49.880;8.648;2022-12-20T01:13:43;3.60;99.90
29241;DHT22;16268;49.880;8.648;2022-12-20T01:16:18;3.50;99.90
29241;DHT22;16268;49.880;8.648;2022-12-20T01:18:44;3.50;99.90
29241;DHT22;16268;49.880;8.648;2022-12-20T01:21:11;3.50;99.90
29241;DHT22;16268;49.880;8.648;2022-12-20T01:23:38;3.50;99.90
29241;DHT22;16268;49.880;8.648;2022-12-20T01:26:05;3.40;99.90
29241;DHT22;16268;49.880;8.648;2022-12-20T01:28:34;3.50;99.90
29241;DHT22;16268;49.880;8.648;2022-12-20T01:31:00;3.50;99.90
29241;DHT22;16268;49.880;8.648;2022-12-20T01:33:26;3.50;99.90
29241;DHT22;16268;49.880;8.648;2022-12-20T01:35:59;3.50;99.90
29241;DHT22;16268;49.880;8.648;2022-12-20T01:38:26;3.60;99.90
29241;DHT22;16268;49.880;8.648;2022-12-20T01:40:53;3.50;99.90
29241;DHT22;16268;49.880;8.648;2022-12-20T01:43:20;3.50;99.90
29241;DHT22;16268;49.880;8.648;2022-12-20T01:45:46;3.50;99.90
29241;DHT22;16268;49.880;8.648;2022-12-20T01:48:15;3.50;99.90
29241;DHT22;16268;49.880;8.648;2022-12-20T01:50:43;3.60;99.90
29241;DHT22;16268;49.880;8.648;2022-12-20T01:53:09;3.50;99.90
29241;DHT22;16268;49.880;8.648;2022-12-20T01:55:36;3.60;99.90
29241;DHT22;16268;49.880;8.648;2022-12-20T01:58:08;3.70;99.90
29241;DHT22;16268;49.880;8.648;2022-12-20T02:00:35;3.70;99.90
29241;DHT22;16268;49.880;8.648;2022-12-20T02:03:05;3.70;99.90
29241;DHT22;16268;49.880;8.648;2022-12-20T02:05:38;3.70;99.90
29241;DHT22;16268;49.880;8.648;2022-12-20T02:08:04;3.70;99.90
29241;DHT22;16268;49.880;8.648;2022-12-20T02:16:21;3.70;99.90
29241;DHT22;16268;49.880;8.648;2022-12-20T02:19:09;3.70;99.90
29241;DHT22;16268;49.880;8.648;2022-12-20T02:21:44;3.80;99.90
29241;DHT22;16268;49.880;8.648;2022-12-20T02:24:35;3.70;99.90
29241;DHT22;16268;49.880;8.648;2022-12-20T02:27:29;3.70;99.90
29241;DHT22;16268;49.880;8.648;2022-12-20T02:30:05;3.70;99.90
29241;DHT22;16268;49.880;8.648;2022-12-20T02:35:05;3.80;99.90
29241;DHT22;16268;49.880;8.648;2022-12-20T02:37:32;3.80;99.90
29241;DHT22;16268;49.880;8.648;2022-12-20T02:39:57;3.80;99.90
29241;DHT22;16268;49.880;8.648;2022-12-20T02:42:24;3.80;99.90
29241;DHT22;16268;49.880;8.648;2022-12-20T02:44:58;3.80;99.90
29241;DHT22;16268;49.880;8.648;2022-12-20T02:50:10;3.80;99.90
29241;DHT22;16268;49.880;8.648;2022-12-20T02:52:37;3.80;99.90
29241;DHT22;16268;49.880;8.648;2022-12-20T02:55:04;3.80;99.90
29241;DHT22;16268;49.880;8.648;2022-12-20T02:57:52;3.80;99.90
29241;DHT22;16268;49.880;8.648;2022-12-20T03:00:21;3.80;99.90
29241;DHT22;16268;49.880;8.648;2022-12-20T03:02:48;3.90;99.90
29241;DHT22;16268;49.880;8.648;2022-12-20T03:05:36;3.90;99.90
29241;DHT22;16268;49.880;8.648;2022-12-20T03:08:06;3.90;99.90
29241;DHT22;16268;49.880;8.648;2022-12-20T03:10:31;3.90;99.90
29241;DHT22;16268;49.880;8.648;2022-12-20T03:12:57;3.90;99.90
29241;DHT22;16268;49.880;8.648;2022-12-20T03:15:22;3.90;99.90
29241;DHT22;16268;49.880;8.648;2022-12-20T03:17:48;3.90;99.90
29241;DHT22;16268;49.880;8.648;2022-12-20T03:20:14;3.90;99.90
29241;DHT22;16268;49.880;8.648;2022-12-20T03:22:39;3.90;99.90
29241;DHT22;16268;49.880;8.648;2022-12-20T03:25:05;3.90;99.90
29241;DHT22;16268;49.880;8.648;2022-12-20T03:27:31;3.90;99.90
29241;DHT22;16268;49.880;8.648;2022-12-20T03:29:56;3.90;99.90
29241;DHT22;16268;49.880;8.648;2022-12-20T03:32:22;3.80;99.90
29241;DHT22;16268;49.880;8.648;2022-12-20T03:34:48;3.90;99.90
29241;DHT22;16268;49.880;8.648;2022-12-20T03:37:13;3.80;99.90
29241;DHT22;16268;49.880;8.648;2022-12-20T03:39:39;3.80;99.90
29241;DHT22;16268;49.880;8.648;2022-12-20T03:42:05;3.80;99.90
29241;DHT22;16268;49.880;8.648;2022-12-20T03:44:30;3.90;99.90
29241;DHT22;16268;49.880;8.648;2022-12-20T03:46:56;3.80;99.90
29241;DHT22;16268;49.880;8.648;2022-12-20T03:49:21;3.90;99.90
29241;DHT22;16268;49.880;8.648;2022-12-20T03:51:47;4.00;99.90
29241;DHT22;16268;49.880;8.648;2022-12-20T03:54:12;4.00;99.90
29241;DHT22;16268;49.880;8.648;2022-12-20T03:56:38;4.00;99.90
29241;DHT22;16268;49.880;8.648;2022-12-20T03:59:03;4.00;99.90
29241;DHT22;16268;49.880;8.648;2022-12-20T04:01:29;4.00;99.90
29241;DHT22;16268;49.880;8.648;2022-12-20T04:03:55;3.90;99.90
29241;DHT22;16268;49.880;8.648;2022-12-20T04:06:21;3.80;99.90
29241;DHT22;16268;49.880;8.648;2022-12-20T04:08:48;3.70;99.90
29241;DHT22;16268;49.880;8.648;2022-12-20T04:11:13;3.70;99.90
29241;DHT22;16268;49.880;8.648;2022-12-20T04:13:44;3.60;99.90
29241;DHT22;16268;49.880;8.648;2022-12-20T04:16:11;3.80;99.90
29241;DHT22;16268;49.880;8.648;2022-12-20T04:18:37;3.80;99.90
29241;DHT22;16268;49.880;8.648;2022-12-20T04:21:03;3.80;99.90
29241;DHT22;16268;49.880;8.648;2022-12-20T04:23:29;3.80;99.90
29241;DHT22;16268;49.880;8.648;2022-12-20T04:25:54;3.90;99.90
29241;DHT22;16268;49.880;8.648;2022-12-20T04:28:20;3.90;99.90
29241;DHT22;16268;49.880;8.648;2022-12-20T04:30:45;3.90;99.90
29241;DHT22;16268;49.880;8.648;2022-12-20T04:33:11;3.90;99.90
29241;DHT22;16268;49.880;8.648;2022-12-20T04:35:37;3.90;99.90
29241;DHT22;16268;49.880;8.648;2022-12-20T04:38:03;3.90;99.90
29241;DHT22;16268;49.880;8.648;2022-12-20T04:40:28;3.90;99.90
29241;DHT22;16268;49.880;8.648;2022-12-20T04:42:54;3.90;99.90
29241;DHT22;16268;49.880;8.648;2022-12-20T04:45:19;3.80;99.90
29241;DHT22;16268;49.880;8.648;2022-12-20T04:47:45;3.80;99.90
29241;DHT22;16268;49.880;8.648;2022-12-20T04:50:11;3.70;99.90
29241;DHT22;16268;49.880;8.648;2022-12-20T04:52:36;3.80;99.90
29241;DHT22;16268;49.880;8.648;2022-12-20T04:55:21;3.80;99.90
29241;DHT22;16268;49.880;8.648;2022-12-20T04:57:47;3.70;99.90
29241;DHT22;16268;49.880;8.648;2022-12-20T05:00:13;3.70;99.90
29241;DHT22;16268;49.880;8.648;2022-12-20T05:02:40;3.80;99.90
29241;DHT22;16268;49.880;8.648;2022-12-20T05:05:06;3.80;99.90
29241;DHT22;16268;49.880;8.648;2022-12-20T05:07:31;3.80;99.90
29241;DHT22;16268;49.880;8.648;2022-12-20T05:09:57;3.80;99.90
29241;DHT22;16268;49.880;8.648;2022-12-20T05:12:23;3.70;99.90
29241;DHT22;16268;49.880;8.648;2022-12-20T05:14:48;3.70;99.90
29241;DHT22;16268;49.880;8.648;2022-12-20T05:17:14;3.80;99.90
29241;DHT22;16268;49.880;8.648;2022-12-20T05:19:39;3.80;99.90
29241;DHT22;16268;49.880;8.648;2022-12-20T05:22:05;3.80;99.90
29241;DHT22;16268;49.880;8.648;2022-12-20T05:24:49;3.80;99.90
29241;DHT22;16268;49.880;8.648;2022-12-20T05:27:33;3.80;99.90
29241;DHT22;16268;49.880;8.648;2022-12-20T05:29:59;3.90;99.90
29241;DHT22;16268;49.880;8.648;2022-12-20T05:32:24;3.90;99.90
29241;DHT22;16268;49.880;8.648;2022-12-20T05:34:50;3.90;99.90
29241;DHT22;16268;49.880;8.648;2022-12-20T05:37:15;3.90;99.90
29241;DHT22;16268;49.880;8.648;2022-12-20T05:39:41;3.90;99.90
29241;DHT22;16268;49.880;8.648;2022-12-20T05:42:06;3.90;99.90
29241;DHT22;16268;49.880;8.648;2022-12-20T05:44:32;3.80;99.90
29241;DHT22;16268;49.880;8.648;2022-12-20T05:46:57;3.90;99.90
29241;DHT22;16268;49.880;8.648;2022-12-20T05:49:23;3.90;99.90
29241;DHT22;16268;49.880;8.648;2022-12-20T05:51:49;3.90;99.90
29241;DHT22;16268;49.880;8.648;2022-12-20T05:54:14;3.90;99.90
29241;DHT22;16268;49.880;8.648;2022-12-20T05:56:40;4.00;99.90
29241;DHT22;16268;49.880;8.648;2022-12-20T05:59:06;4.10;99.90
29241;DHT22;16268;49.880;8.648;2022-12-20T06:01:31;4.10;99.90
29241;DHT22;16268;49.880;8.648;2022-12-20T06:03:57;4.10;99.90
29241;DHT22;16268;49.880;8.648;2022-12-20T06:06:23;4.10;99.90
29241;DHT22;16268;49.880;8.648;2022-12-20T06:08:49;4.10;99.90
29241;DHT22;16268;49.880;8.648;2022-12-20T06:11:14;4.20;99.90
29241;DHT22;16268;49.880;8.648;2022-12-20T06:13:40;4.10;99.90
29241;DHT22;16268;49.880;8.648;2022-12-20T06:16:05;4.10;99.90
29241;DHT22;16268;49.880;8.648;2022-12-20T06:18:31;4.10;99.90
29241;DHT22;16268;49.880;8.648;2022-12-20T06:20:57;4.00;99.90
29241;DHT22;16268;49.880;8.648;2022-12-20T06:23:22;3.90;99.90
29241;DHT22;16268;49.880;8.648;2022-12-20T06:25:51;3.90;99.90
29241;DHT22;16268;49.880;8.648;2022-12-20T06:28:16;3.90;99.90
29241;DHT22;16268;49.880;8.648;2022-12-20T06:30:52;4.00;99.90
29241;DHT22;16268;49.880;8.648;2022-12-20T06:33:18;3.90;99.90
29241;DHT22;16268;49.880;8.648;2022-12-20T06:35:43;3.90;99.90
29241;DHT22;16268;49.880;8.648;2022-12-20T06:38:09;3.90;99.90
29241;DHT22;16268;49.880;8.648;2022-12-20T06:40:34;3.80;99.90
29241;DHT22;16268;49.880;8.648;2022-12-20T06:43:00;3.80;99.90
29241;DHT22;16268;49.880;8.648;2022-12-20T06:45:26;3.80;99.90
29241;DHT22;16268;49.880;8.648;2022-12-20T06:47:51;3.80;99.90
29241;DHT22;16268;49.880;8.648;2022-12-20T06:50:17;3.80;99.90
29241;DHT22;16268;49.880;8.648;2022-12-20T06:52:42;3.70;99.90
29241;DHT22;16268;49.880;8.648;2022-12-20T06:55:08;3.70;99.90
29241;DHT22;16268;49.880;8.648;2022-12-20T06:57:34;3.70;99.90
29241;DHT22;16268;49.880;8.648;2022-12-20T06:59:59;3.80;99.90
29241;DHT22;16268;49.880;8.648;2022-12-20T07:02:25;3.90;99.90
29241;DHT22;16268;49.880;8.648;2022-12-20T07:04:50;3.90;99.90
29241;DHT22;16268;49.880;8.648;2022-12-20T07:07:16;3.90;99.90
29241;DHT22;16268;49.880;8.648;2022-12-20T07:09:42;4.00;99.90
29241;DHT22;16268;49.880;8.648;2022-12-20T07:12:08;4.20;99.90
29241;DHT22;16268;49.880;8.648;2022-12-20T07:14:34;4.20;99.90
29241;DHT22;16268;49.880;8.648;2022-12-20T07:16:59;4.10;99.90
29241;DHT22;16268;49.880;8.648;2022-12-20T07:19:25;4.20;99.90
29241;DHT22;16268;49.880;8.648;2022-12-20T07:21:50;4.30;99.90
29241;DHT22;16268;49.880;8.648;2022-12-20T07:24:18;4.30;99.90
29241;DHT22;16268;49.880;8.648;2022-12-20T07:26:44;4.30;99.90
29241;DHT22;16268;49.880;8.648;2022-12-20T07:29:11;4.40;99.90
29241;DHT22;16268;49.880;8.648;2022-12-20T07:31:36;4.40;99.90
29241;DHT22;16268;49.880;8.648;2022-12-20T07:34:02;4.40;99.90
29241;DHT22;16268;49.880;8.648;2022-12-20T07:36:27;4.30;99.90
29241;DHT22;16268;49.880;8.648;2022-12-20T07:38:57;4.30;99.90
29241;DHT22;16268;49.880;8.648;2022-12-20T07:41:22;4.30;99.90
29241;DHT22;16268;49.880;8.648;2022-12-20T07:43:49;4.20;99.90
29241;DHT22;16268;49.880;8.648;2022-12-20T07:46:15;4.20;99.90
29241;DHT22;16268;49.880;8.648;2022-12-20T07:48:41;4.20;99.90
29241;DHT22;16268;49.880;8.648;2022-12-20T07:51:18;4.20;99.90
29241;DHT22;16268;49.880;8.648;2022-12-20T07:53:49;4.30;99.90
29241;DHT22;16268;49.880;8.648;2022-12-20T07:56:15;4.30;99.90
29241;DHT22;16268;49.880;8.648;2022-12-20T07:58:43;4.30;99.90
29241;DHT22;16268;49.880;8.648;2022-12-20T08:01:09;4.30;99.90
29241;DHT22;16268;49.880;8.648;2022-12-20T08:03:40;4.40;99.90
29241;DHT22;16268;49.880;8.648;2022-12-20T08:06:08;4.40;99.90
29241;DHT22;16268;49.880;8.648;2022-12-20T08:08:36;4.50;99.90
29241;DHT22;16268;49.880;8.648;2022-12-20T08:11:03;4.50;99.90
29241;DHT22;16268;49.880;8.648;2022-12-20T08:13:31;4.50;99.90
29241;DHT22;16268;49.880;8.648;2022-12-20T08:15:58;4.40;99.90
29241;DHT22;16268;49.880;8.648;2022-12-20T08:18:24;4.40;99.90
29241;DHT22;16268;49.880;8.648;2022-12-20T08:20:49;4.40;99.90
29241;DHT22;16268;49.880;8.648;2022-12-20T08:23:14;4.40;99.90
29241;DHT22;16268;49.880;8.648;2022-12-20T08:25:40;4.40;99.90
29241;DHT22;16268;49.880;8.648;2022-12-20T08:28:06;4.40;99.90
29241;DHT22;16268;49.880;8.648;2022-12-20T08:30:31;4.40;99.90
29241;DHT22;16268;49.880;8.648;2022-12-20T08:32:57;4.50;99.90
29241;DHT22;16268;49.880;8.648;2022-12-20T08:35:22;4.50;99.90
29241;DHT22;16268;49.880;8.648;2022-12-20T08:37:50;4.60;99.90
29241;DHT22;16268;49.880;8.648;2022-12-20T08:40:17;4.70;99.90
29241;DHT22;16268;49.880;8.648;2022-12-20T08:42:43;4.80;99.90
29241;DHT22;16268;49.880;8.648;2022-12-20T08:45:09;4.80;99.90
29241;DHT22;16268;49.880;8.648;2022-12-20T08:47:35;5.00;99.90
29241;DHT22;16268;49.880;8.648;2022-12-20T08:50:00;5.10;99.90
29241;DHT22;16268;49.880;8.648;2022-12-20T08:52:28;5.20;99.90
29241;DHT22;16268;49.880;8.648;2022-12-20T08:54:54;5.10;99.90
29241;DHT22;16268;49.880;8.648;2022-12-20T08:57:19;5.20;99.90
29241;DHT22;16268;49.880;8.648;2022-12-20T08:59:45;5.10;99.90
29241;DHT22;16268;49.880;8.648;2022-12-20T09:02:11;5.10;99.90
29241;DHT22;16268;49.880;8.648;2022-12-20T09:04:36;5.20;99.90
29241;DHT22;16268;49.880;8.648;2022-12-20T09:07:02;5.30;99.90
29241;DHT22;16268;49.880;8.648;2022-12-20T09:09:28;5.40;99.90
29241;DHT22;16268;49.880;8.648;2022-12-20T09:11:53;5.40;99.90
29241;DHT22;16268;49.880;8.648;2022-12-20T09:14:20;5.40;99.90
29241;DHT22;16268;49.880;8.648;2022-12-20T09:16:45;5.30;99.90
29241;DHT22;16268;49.880;8.648;2022-12-20T09:19:12;5.30;99.90
29241;DHT22;16268;49.880;8.648;2022-12-20T09:21:38;5.40;99.90
29241;DHT22;16268;49.880;8.648;2022-12-20T09:24:04;5.50;99.90
29241;DHT22;16268;49.880;8.648;2022-12-20T09:26:30;5.60;99.90
29241;DHT22;16268;49.880;8.648;2022-12-20T09:28:57;5.90;99.90
29241;DHT22;16268;49.880;8.648;2022-12-20T09:31:24;6.00;99.90
29241;DHT22;16268;49.880;8.648;2022-12-20T09:33:55;6.10;99.90
29241;DHT22;16268;49.880;8.648;2022-12-20T09:36:23;6.30;99.90
29241;DHT22;16268;49.880;8.648;2022-12-20T09:38:50;6.30;99.90
29241;DHT22;16268;49.880;8.648;2022-12-20T09:41:30;6.30;99.90
29241;DHT22;16268;49.880;8.648;2022-12-20T09:43:58;6.40;99.90
29241;DHT22;16268;49.880;8.648;2022-12-20T09:46:24;6.50;99.90
29241;DHT22;16268;49.880;8.648;2022-12-20T09:48:50;6.60;99.90
29241;DHT22;16268;49.880;8.648;2022-12-20T09:51:42;6.70;99.90
29241;DHT22;16268;49.880;8.648;2022-12-20T09:54:22;6.90;99.90
29241;DHT22;16268;49.880;8.648;2022-12-20T09:59:33;6.90;99.90
29241;DHT22;16268;49.880;8.648;2022-12-20T10:01:59;6.80;99.90
29241;DHT22;16268;49.880;8.648;2022-12-20T10:04:27;6.80;99.90
29241;DHT22;16268;49.880;8.648;2022-12-20T10:12:51;6.70;99.90
29241;DHT22;16268;49.880;8.648;2022-12-20T10:15:32;6.70;99.90
29241;DHT22;16268;49.880;8.648;2022-12-20T10:18:24;6.90;99.90
29241;DHT22;16268;49.880;8.648;2022-12-20T10:24:02;6.90;99.90
29241;DHT22;16268;49.880;8.648;2022-12-20T10:26:31;7.00;99.90
29241;DHT22;16268;49.880;8.648;2022-12-20T10:28:57;7.00;99.90
29241;DHT22;16268;49.880;8.648;2022-12-20T10:31:23;7.00;99.90
29241;DHT22;16268;49.880;8.648;2022-12-20T10:33:49;6.90;99.90
29241;DHT22;16268;49.880;8.648;2022-12-20T10:38:49;7.10;99.90
29241;DHT22;16268;49.880;8.648;2022-12-20T10:41:18;7.20;99.90
29241;DHT22;16268;49.880;8.648;2022-12-20T10:43:55;7.30;99.90
29241;DHT22;16268;49.880;8.648;2022-12-20T10:46:34;7.20;99.90
29241;DHT22;16268;49.880;8.648;2022-12-20T10:51:51;7.00;99.90
29241;DHT22;16268;49.880;8.648;2022-12-20T10:54:35;6.80;99.90
29241;DHT22;16268;49.880;8.648;2022-12-20T10:59:49;6.70;99.90
29241;DHT22;16268;49.880;8.648;2022-12-20T11:02:27;6.80;99.90
29241;DHT22;16268;49.880;8.648;2022-12-20T11:07:52;7.10;99.90
29241;DHT22;16268;49.880;8.648;2022-12-20T11:10:24;7.10;99.90
29241;DHT22;16268;49.880;8.648;2022-12-20T11:12:54;7.30;99.90
29241;DHT22;16268;49.880;8.648;2022-12-20T11:15:26;7.50;99.90
29241;DHT22;16268;49.880;8.648;2022-12-20T11:17:57;7.60;99.90
29241;DHT22;16268;49.880;8.648;2022-12-20T11:20:43;7.70;99.90
29241;DHT22;16268;49.880;8.648;2022-12-20T11:29:32;7.80;99.90
29241;DHT22;16268;49.880;8.648;2022-12-20T11:40:57;8.30;99.90
29241;DHT22;16268;49.880;8.648;2022-12-20T11:46:49;8.40;99.90
29241;DHT22;16268;49.880;8.648;2022-12-20T11:49:20;8.30;99.90
29241;DHT22;16268;49.880;8.648;2022-12-20T11:52:03;8.20;99.90
29241;DHT22;16268;49.880;8.648;2022-12-20T11:54:44;8.20;99.90
29241;DHT22;16268;49.880;8.648;2022-12-20T11:57:21;8.30;99.90
29241;DHT22;16268;49.880;8.648;2022-12-20T11:59:57;8.40;99.90
29241;DHT22;16268;49.880;8.648;2022-12-20T12:05:06;8.70;99.90
29241;DHT22;16268;49.880;8.648;2022-12-20T12:07:37;8.80;99.90
29241;DHT22;16268;49.880;8.648;2022-12-20T12:12:46;9.00;99.90
29241;DHT22;16268;49.880;8.648;2022-12-20T12:15:33;9.10;99.90
29241;DHT22;16268;49.880;8.648;2022-12-20T12:18:15;9.20;99.90
29241;DHT22;16268;49.880;8.648;2022-12-20T12:20:53;9.30;99.90
29241;DHT22;16268;49.880;8.648;2022-12-20T12:23:28;9.30;99.90
29241;DHT22;16268;49.880;8.648;2022-12-20T12:25:55;9.30;99.90
29241;DHT22;16268;49.880;8.648;2022-12-20T12:28:32;9.20;99.90
29241;DHT22;16268;49.880;8.648;2022-12-20T12:31:13;9.20;99.90
29241;DHT22;16268;49.880;8.648;2022-12-20T12:33:45;9.30;99.90
29241;DHT22;16268;49.880;8.648;2022-12-20T12:36:22;9.30;99.90
29241;DHT22;16268;49.880;8.648;2022-12-20T12:47:35;9.20;99.90
29241;DHT22;16268;49.880;8.648;2022-12-20T12:50:02;9.20;99.90
29241;DHT22;16268;49.880;8.648;2022-12-20T12:52:44;9.30;99.90
29241;DHT22;16268;49.880;8.648;2022-12-20T12:55:48;9.30;99.90
29241;DHT22;16268;49.880;8.648;2022-12-20T12:58:29;9.30;99.90
29241;DHT22;16268;49.880;8.648;2022-12-20T13:01:00;9.20;99.90
29241;DHT22;16268;49.880;8.648;2022-12-20T13:11:37;9.00;99.90
29241;DHT22;16268;49.880;8.648;2022-12-20T13:24:54;8.60;99.90
29241;DHT22;16268;49.880;8.648;2022-12-20T13:27:38;8.50;99.90
29241;DHT22;16268;49.880;8.648;2022-12-20T13:35:43;8.30;99.90
29241;DHT22;16268;49.880;8.648;2022-12-20T13:40:48;8.10;99.90
29241;DHT22;16268;49.880;8.648;2022-12-20T13:45:52;8.00;99.90
29241;DHT22;16268;49.880;8.648;2022-12-20T13:48:24;8.10;99.90
29241;DHT22;16268;49.880;8.648;2022-12-20T13:50:52;8.10;99.90
29241;DHT22;16268;49.880;8.648;2022-12-20T13:53:23;8.10;99.90
29241;DHT22;16268;49.880;8.648;2022-12-20T13:55:51;8.10;99.90
29241;DHT22;16268;49.880;8.648;2022-12-20T13:58:26;8.00;99.90
29241;DHT22;16268;49.880;8.648;2022-12-20T14:00:53;7.80;99.90
29241;DHT22;16268;49.880;8.648;2022-12-20T14:03:22;7.70;99.90
29241;DHT22;16268;49.880;8.648;2022-12-20T14:05:55;7.60;99.90
29241;DHT22;16268;49.880;8.648;2022-12-20T14:08:25;7.60;99.90
29241;DHT22;16268;49.880;8.648;2022-12-20T14:10:52;7.50;99.90
29241;DHT22;16268;49.880;8.648;2022-12-20T14:13:25;7.40;99.90
29241;DHT22;16268;49.880;8.648;2022-12-20T14:15:52;7.40;99.90
29241;DHT22;16268;49.880;8.648;2022-12-20T14:18:25;7.40;99.90
29241;DHT22;16268;49.880;8.648;2022-12-20T14:20:59;7.40;99.90
29241;DHT22;16268;49.880;8.648;2022-12-20T14:23:35;7.40;99.90
29241;DHT22;16268;49.880;8.648;2022-12-20T14:26:01;7.40;99.90
29241;DHT22;16268;49.880;8.648;2022-12-20T14:28:39;7.50;99.90
29241;DHT22;16268;49.880;8.648;2022-12-20T14:31:20;7.40;99.90
29241;DHT22;16268;49.880;8.648;2022-12-20T14:33:47;7.40;99.90
29241;DHT22;16268;49.880;8.648;2022-12-20T14:38:46;7.40;99.90
29241;DHT22;16268;49.880;8.648;2022-12-20T14:41:31;7.40;99.90
29241;DHT22;16268;49.880;8.648;2022-12-20T14:46:35;7.40;99.90
29241;DHT22;16268;49.880;8.648;2022-12-20T14:49:07;7.50;99.90
29241;DHT22;16268;49.880;8.648;2022-12-20T14:51:37;7.50;99.90
29241;DHT22;16268;49.880;8.648;2022-12-20T14:54:03;7.60;99.90
29241;DHT22;16268;49.880;8.648;2022-12-20T14:56:29;7.50;99.90
29241;DHT22;16268;49.880;8.648;2022-12-20T14:59:14;7.50;99.90
29241;DHT22;16268;49.880;8.648;2022-12-20T15:01:41;7.50;99.90
29241;DHT22;16268;49.880;8.648;2022-12-20T15:04:32;7.50;99.90
29241;DHT22;16268;49.880;8.648;2022-12-20T15:07:00;7.60;99.90
29241;DHT22;16268;49.880;8.648;2022-12-20T15:09:26;7.60;99.90
29241;DHT22;16268;49.880;8.648;2022-12-20T15:11:52;7.50;99.90
29241;DHT22;16268;49.880;8.648;2022-12-20T15:14:34;7.50;99.90
29241;DHT22;16268;49.880;8.648;2022-12-20T15:17:02;7.50;99.90
29241;DHT22;16268;49.880;8.648;2022-12-20T15:19:28;7.50;99.90
29241;DHT22;16268;49.880;8.648;2022-12-20T15:21:55;7.40;99.90
29241;DHT22;16268;49.880;8.648;2022-12-20T15:24:24;7.40;99.90
29241;DHT22;16268;49.880;8.648;2022-12-20T15:26:51;7.30;99.90
29241;DHT22;16268;49.880;8.648;2022-12-20T15:29:21;7.30;99.90
29241;DHT22;16268;49.880;8.648;2022-12-20T15:31:48;7.30;99.90
29241;DHT22;16268;49.880;8.648;2022-12-20T15:34:29;7.20;99.90
29241;DHT22;16268;49.880;8.648;2022-12-20T15:36:56;7.20;99.90
29241;DHT22;16268;49.880;8.648;2022-12-20T15:39:25;7.10;99.90
29241;DHT22;16268;49.880;8.648;2022-12-20T15:41:51;7.10;99.90
29241;DHT22;16268;49.880;8.648;2022-12-20T15:44:23;7.10;99.90
29241;DHT22;16268;49.880;8.648;2022-12-20T15:46:50;7.20;99.90
29241;DHT22;16268;49.880;8.648;2022-12-20T15:49:28;7.20;99.90
29241;DHT22;16268;49.880;8.648;2022-12-20T15:51:54;7.20;99.90
29241;DHT22;16268;49.880;8.648;2022-12-20T15:54:29;7.20;99.90
29241;DHT22;16268;49.880;8.648;2022-12-20T15:56:57;7.20;99.90
29241;DHT22;16268;49.880;8.648;2022-12-20T15:59:23;7.10;99.90
29241;DHT22;16268;49.880;8.648;2022-12-20T16:01:48;7.10;99.90
29241;DHT22;16268;49.880;8.648;2022-12-20T16:04:19;7.00;99.90
29241;DHT22;16268;49.880;8.648;2022-12-20T16:06:46;7.00;99.90
29241;DHT22;16268;49.880;8.648;2022-12-20T16:09:13;7.10;99.90
29241;DHT22;16268;49.880;8.648;2022-12-20T16:11:39;7.20;99.90
29241;DHT22;16268;49.880;8.648;2022-12-20T16:14:06;7.20;99.90
29241;DHT22;16268;49.880;8.648;2022-12-20T16:16:34;7.20;99.90
29241;DHT22;16268;49.880;8.648;2022-12-20T16:19:00;7.20;99.90
29241;DHT22;16268;49.880;8.648;2022-12-20T16:21:32;7.10;99.90
29241;DHT22;16268;49.880;8.648;2022-12-20T16:23:58;7.10;99.90
29241;DHT22;16268;49.880;8.648;2022-12-20T16:26:25;7.00;99.90
29241;DHT22;16268;49.880;8.648;2022-12-20T16:28:52;7.00;99.90
29241;DHT22;16268;49.880;8.648;2022-12-20T16:31:30;7.00;99.90
29241;DHT22;16268;49.880;8.648;2022-12-20T16:33:57;7.10;99.90
29241;DHT22;16268;49.880;8.648;2022-12-20T16:36:24;7.10;99.90
29241;DHT22;16268;49.880;8.648;2022-12-20T16:38:50;7.20;99.90
29241;DHT22;16268;49.880;8.648;2022-12-20T16:41:19;7.20;99.90
29241;DHT22;16268;49.880;8.648;2022-12-20T16:43:46;7.20;99.90
29241;DHT22;16268;49.880;8.648;2022-12-20T16:46:14;7.30;99.90
29241;DHT22;16268;49.880;8.648;2022-12-20T16:48:43;7.30;99.90
29241;DHT22;16268;49.880;8.648;2022-12-20T16:53:48;7.20;99.90
29241;DHT22;16268;49.880;8.648;2022-12-20T16:56:14;7.10;99.90
29241;DHT22;16268;49.880;8.648;2022-12-20T16:58:39;7.10;99.90
29241;DHT22;16268;49.880;8.648;2022-12-20T17:01:05;7.10;99.90
29241;DHT22;16268;49.880;8.648;2022-12-20T17:03:31;7.10;99.90
29241;DHT22;16268;49.880;8.648;2022-12-20T17:05:56;7.10;99.90
29241;DHT22;16268;49.880;8.648;2022-12-20T17:08:22;7.20;99.90
29241;DHT22;16268;49.880;8.648;2022-12-20T17:10:47;7.10;99.90
29241;DHT22;16268;49.880;8.648;2022-12-20T17:13:13;7.20;99.90
29241;DHT22;16268;49.880;8.648;2022-12-20T17:15:39;7.20;99.90
29241;DHT22;16268;49.880;8.648;2022-12-20T17:18:07;7.20;99.90
29241;DHT22;16268;49.880;8.648;2022-12-20T17:20:32;7.30;99.90
29241;DHT22;16268;49.880;8.648;2022-12-20T17:22:58;7.30;99.90
29241;DHT22;16268;49.880;8.648;2022-12-20T17:25:26;7.30;99.90
29241;DHT22;16268;49.880;8.648;2022-12-20T17:27:52;7.30;99.90
29241;DHT22;16268;49.880;8.648;2022-12-20T17:30:20;7.30;99.90
29241;DHT22;16268;49.880;8.648;2022-12-20T17:32:46;7.30;99.90
29241;DHT22;16268;49.880;8.648;2022-12-20T17:35:24;7.20;99.90
29241;DHT22;16268;49.880;8.648;2022-12-20T17:37:50;7.20;99.90